Time;durP1;ratioP1;P1;durP2;ratioP2;P2;SDS_P1;SDS_P2;PMS_P1;PMS_P2;Temp;Humidity;BMP_temperature;BMP_pressure;BME280_temperature;BME280_humidity;BME280_pressure;Samples;Min_cycle;Max_cycle;Signal;HPM_P1;HPM_P2
2022/02/26 00:00:59;;;;;;;10.33;2.93;;;;;;;-1.20;100.00;102977.97;2010686;29;20053;-59
2022/02/26 00:01:59;;;;;;;6.97;3.50;;;;;;;-1.22;100.00;102979.56;2010674;29;20468;-60
2022/02/26 00:02:59;;;;;;;12.70;3.60;;;;;;;-1.27;100.00;102987.06;2010342;29;20025;-59
2022/02/26 00:04:00;;;;;;;7.37;2.73;;;;;;;-1.34;100.00;102990.16;2017791;29;20036;-59
2022/02/26 00:05:00;;;;;;;12.40;3.30;;;;;;;-1.40;100.00;102995.06;2017845;29;20100;-60
2022/02/26 00:06:01;;;;;;;8.97;3.57;;;;;;;-1.45;100.00;102997.41;2010775;29;20029;-60
2022/02/26 00:07:01;;;;;;;5.03;2.63;;;;;;;-1.49;100.00;102992.97;2010093;29;20366;-60
2022/02/26 00:08:01;;;;;;;7.00;3.47;;;;;;;-1.52;100.00;102990.28;2010151;29;20033;-60
2022/02/26 00:09:05;;;;;;;8.43;2.70;;;;;;;-1.54;100.00;102997.03;2010744;29;20301;-60
2022/02/26 00:10:06;;;;;;;6.82;2.78;;;;;;;-1.58;100.00;102998.56;2010700;29;20030;-60
2022/02/26 00:11:06;;;;;;;7.85;2.60;;;;;;;-1.63;100.00;102994.94;2010710;29;20085;-60
2022/02/26 00:12:08;;;;;;;9.70;3.40;;;;;;;-1.65;100.00;103000.00;2010758;29;20029;-59
2022/02/26 00:13:08;;;;;;;8.02;3.42;;;;;;;-1.65;100.00;103000.00;2010673;29;20356;-59
2022/02/26 00:14:08;;;;;;;5.40;2.50;;;;;;;-1.68;100.00;103002.41;2010735;29;20036;-59
2022/02/26 00:15:09;;;;;;;14.43;5.47;;;;;;;-1.64;100.00;103006.84;2010716;29;20136;-60
2022/02/26 00:16:09;;;;;;;10.40;4.28;;;;;;;-1.54;100.00;103003.00;2010730;29;20037;-60
2022/02/26 00:17:10;;;;;;;6.32;3.40;;;;;;;-1.43;100.00;103011.16;2010715;29;20026;-60
2022/02/26 00:18:10;;;;;;;9.93;3.40;;;;;;;-1.35;100.00;103008.91;2010754;29;20066;-60
2022/02/26 00:19:11;;;;;;;10.87;4.53;;;;;;;-1.34;100.00;103011.56;2010726;29;20527;-60
2022/02/26 00:20:12;;;;;;;9.77;3.25;;;;;;;-1.38;100.00;103013.91;2010643;29;20068;-60
2022/02/26 00:21:12;;;;;;;10.30;3.40;;;;;;;-1.42;100.00;103005.22;2010684;29;20029;-60
2022/02/26 00:22:13;;;;;;;5.45;3.00;;;;;;;-1.45;100.00;103015.34;2017698;29;20112;-60
2022/02/26 00:23:13;;;;;;;7.77;3.20;;;;;;;-1.49;100.00;103008.34;2017702;29;20033;-60
2022/02/26 00:24:13;;;;;;;7.93;3.40;;;;;;;-1.52;100.00;103023.56;2010712;29;20081;-60
2022/02/26 00:25:14;;;;;;;8.07;4.20;;;;;;;-1.53;100.00;103014.13;2010621;29;20051;-59
2022/02/26 00:26:14;;;;;;;9.07;3.83;;;;;;;-1.53;100.00;103019.25;2017626;29;20025;-60
2022/02/26 00:27:15;;;;;;;13.50;4.23;;;;;;;-1.52;100.00;103021.00;2017750;29;20281;-65
2022/02/26 00:28:15;;;;;;;8.13;3.33;;;;;;;-1.52;100.00;103016.75;2010027;29;20038;-60
2022/02/26 00:29:15;;;;;;;9.67;3.03;;;;;;;-1.57;100.00;103018.25;2010058;29;20103;-60
2022/02/26 00:30:16;;;;;;;10.50;3.77;;;;;;;-1.60;100.00;103011.31;2010571;29;20029;-60
2022/02/26 00:31:16;;;;;;;9.45;3.38;;;;;;;-1.59;100.00;103020.75;2010634;29;20415;-60
2022/02/26 00:32:17;;;;;;;9.02;3.65;;;;;;;-1.59;100.00;103025.88;2010631;29;20060;-59
2022/02/26 00:33:17;;;;;;;10.53;3.43;;;;;;;-1.59;100.00;103025.00;2010639;29;20039;-60
2022/02/26 00:34:17;;;;;;;10.03;3.43;;;;;;;-1.53;100.00;103025.28;2010583;29;20029;-60
2022/02/26 00:35:18;;;;;;;9.53;3.60;;;;;;;-1.48;100.00;103033.13;2010647;29;20563;-59
2022/02/26 00:36:18;;;;;;;7.70;2.93;;;;;;;-1.46;100.00;103036.66;2010648;29;20029;-59
2022/02/26 00:37:18;;;;;;;8.77;3.13;;;;;;;-1.42;100.00;103035.97;2017589;29;20073;-59
2022/02/26 00:38:18;;;;;;;8.70;3.43;;;;;;;-1.38;100.00;103037.84;2017723;29;20068;-60
2022/02/26 00:39:19;;;;;;;11.43;3.70;;;;;;;-1.38;100.00;103029.28;2010564;29;20117;-60
2022/02/26 00:40:19;;;;;;;8.50;3.83;;;;;;;-1.39;100.00;103036.09;2010611;29;20113;-59
2022/02/26 00:41:19;;;;;;;12.50;3.77;;;;;;;-1.40;100.00;103041.16;2010622;29;20069;-60
2022/02/26 00:42:20;;;;;;;8.20;3.10;;;;;;;-1.46;100.00;103034.09;2009942;29;20069;-60
2022/02/26 00:43:21;;;;;;;12.30;4.57;;;;;;;-1.47;100.00;103043.44;2010041;29;20034;-60
2022/02/26 00:44:21;;;;;;;10.35;3.97;;;;;;;-1.44;100.00;103045.25;2010608;29;20030;-60
2022/02/26 00:45:21;;;;;;;12.67;4.17;;;;;;;-1.43;100.00;103047.03;2010610;29;20029;-60
2022/02/26 00:46:22;;;;;;;8.27;3.73;;;;;;;-1.41;100.00;103047.97;2010583;29;20381;-60
2022/02/26 00:47:22;;;;;;;9.53;3.43;;;;;;;-1.41;100.00;103047.97;2010518;29;20026;-59
2022/02/26 00:49:46;;;;;;;10.10;4.53;;;;;;;-1.41;100.00;103053.09;2010443;29;20302;-60
2022/02/26 00:49:49;;;;;;;8.68;3.58;;;;;;;-1.38;100.00;103050.66;2010499;29;20025;-60
2022/02/26 00:50:50;;;;;;;12.73;4.25;;;;;;;-1.37;100.00;103056.66;2010625;29;20033;-60
2022/02/26 00:51:50;;;;;;;10.07;4.13;;;;;;;-1.38;100.00;103060.91;2010524;29;20037;-60
2022/02/26 00:52:52;;;;;;;11.95;3.70;;;;;;;-1.37;100.00;103062.66;2010571;29;20108;-60
2022/02/26 00:53:52;;;;;;;9.50;3.50;;;;;;;-1.39;100.00;103059.16;2010463;29;20032;-59
2022/02/26 00:54:52;;;;;;;10.80;3.90;;;;;;;-1.39;100.00;103061.72;2010490;29;20025;-60
2022/02/26 00:55:52;;;;;;;8.87;3.33;;;;;;;-1.41;100.00;103060.75;2010563;29;20518;-60
2022/02/26 00:56:53;;;;;;;5.93;3.47;;;;;;;-1.41;100.00;103055.66;2010581;29;20029;-60
2022/02/26 00:57:53;;;;;;;8.10;3.67;;;;;;;-1.38;100.00;103060.91;2010487;29;20041;-59
2022/02/26 00:58:53;;;;;;;9.27;4.10;;;;;;;-1.38;100.00;103053.22;2010520;29;20033;-60
2022/02/26 00:59:54;;;;;;;9.40;3.80;;;;;;;-1.39;100.00;103054.03;2010488;29;20061;-60
2022/02/26 01:00:54;;;;;;;9.67;3.80;;;;;;;-1.37;100.00;103059.22;2010508;29;20038;-60
2022/02/26 01:01:55;;;;;;;7.70;3.17;;;;;;;-1.37;100.00;103060.09;2010462;29;20034;-60
2022/02/26 01:02:55;;;;;;;11.23;3.50;;;;;;;-1.37;100.00;103056.66;2010482;29;20056;-60
2022/02/26 01:03:56;;;;;;;8.27;3.40;;;;;;;-1.40;100.00;103062.53;2010345;29;20489;-60
2022/02/26 01:04:56;;;;;;;7.70;4.10;;;;;;;-1.43;100.00;103063.25;2010377;29;20077;-60
2022/02/26 01:05:56;;;;;;;7.43;4.30;;;;;;;-1.49;100.00;103057.88;2010480;29;20025;-60
2022/02/26 01:06:56;;;;;;;9.07;4.10;;;;;;;-1.56;100.00;103061.88;2010522;29;20033;-60
2022/02/26 01:07:57;;;;;;;6.97;3.30;;;;;;;-1.60;100.00;103065.09;2010443;29;20037;-60
2022/02/26 01:08:57;;;;;;;6.40;3.30;;;;;;;-1.63;100.00;103061.50;2010422;29;20033;-59
2022/02/26 01:09:57;;;;;;;9.37;4.07;;;;;;;-1.65;100.00;103074.25;2010484;29;20096;-60
2022/02/26 01:10:58;;;;;;;9.03;3.60;;;;;;;-1.66;100.00;103069.94;2010527;29;20478;-58
2022/02/26 01:11:58;;;;;;;10.30;3.57;;;;;;;-1.64;100.00;103068.31;2010420;29;20029;-59
2022/02/26 01:12:58;;;;;;;10.60;3.92;;;;;;;-1.61;100.00;103073.56;2010607;29;20068;-59
2022/02/26 01:13:59;;;;;;;12.70;3.70;;;;;;;-1.62;100.00;103071.84;2010363;29;20112;-60
2022/02/26 01:15:03;;;;;;;8.07;4.38;;;;;;;-1.69;100.00;103060.44;2011267;29;20040;-60
2022/02/26 01:16:03;;;;;;;11.25;4.20;;;;;;;-1.72;100.00;103074.78;2011976;29;20030;-59
2022/02/26 01:17:05;;;;;;;8.63;4.07;;;;;;;-1.71;100.00;103074.00;2012060;29;20037;-60
2022/02/26 01:18:06;;;;;;;8.23;3.60;;;;;;;-1.73;100.00;103078.16;2011953;29;20294;-60
2022/02/26 01:19:06;;;;;;;14.13;3.00;;;;;;;-1.71;100.00;103077.41;2011928;29;20081;-60
2022/02/26 01:20:07;;;;;;;6.55;3.05;;;;;;;-1.72;100.00;103079.91;2011932;29;20060;-61
2022/02/26 01:21:08;;;;;;;6.40;2.90;;;;;;;-1.74;100.00;103081.53;2011988;29;20356;-61
2022/02/26 01:22:08;;;;;;;9.80;3.57;;;;;;;-1.76;100.00;103078.00;2011991;29;20029;-60
2022/02/26 01:23:08;;;;;;;10.30;3.30;;;;;;;-1.76;100.00;103084.03;2012011;29;20637;-59
2022/02/26 01:24:09;;;;;;;8.60;3.73;;;;;;;-1.77;100.00;103078.81;2012031;29;20029;-60
2022/02/26 01:25:10;;;;;;;8.68;3.38;;;;;;;-1.79;100.00;103083.00;2011941;29;20081;-60
2022/02/26 01:26:10;;;;;;;9.98;3.72;;;;;;;-1.82;100.00;103078.59;2011876;29;20037;-60
2022/02/26 01:27:10;;;;;;;6.63;3.00;;;;;;;-1.83;100.00;103077.75;2011984;29;20081;-60
2022/02/26 01:28:11;;;;;;;7.17;3.60;;;;;;;-1.84;100.00;103078.53;2011985;29;20071;-60
2022/02/26 01:29:11;;;;;;;11.37;4.00;;;;;;;-1.76;100.00;103078.00;2011916;29;20022;-60
2022/02/26 01:30:12;;;;;;;7.57;3.03;;;;;;;-1.77;100.00;103081.38;2011951;29;20401;-60
2022/02/26 01:31:12;;;;;;;10.18;4.68;;;;;;;-1.78;100.00;103084.75;2011901;29;20070;-60
2022/02/26 01:32:12;;;;;;;10.93;3.85;;;;;;;-1.81;100.00;103081.25;2011947;29;20456;-60
2022/02/26 01:33:13;;;;;;;8.00;2.83;;;;;;;-1.83;100.00;103087.09;2011923;29;20472;-60
2022/02/26 01:34:13;;;;;;;10.67;4.00;;;;;;;-1.85;100.00;103092.16;2011921;29;20068;-60
2022/02/26 01:35:13;;;;;;;15.37;4.00;;;;;;;-1.85;100.00;103089.59;2011893;29;20030;-59
2022/02/26 01:36:15;;;;;;;10.53;3.63;;;;;;;-1.81;100.00;103094.03;2011872;29;20033;-59
2022/02/26 01:37:15;;;;;;;8.73;3.38;;;;;;;-1.82;100.00;103089.72;2011832;29;20480;-60
2022/02/26 01:38:15;;;;;;;6.53;3.20;;;;;;;-1.79;100.00;103088.13;2011886;29;20037;-60
2022/02/26 01:39:23;;;;;;;5.77;3.67;;;;;;;-1.77;100.00;103082.28;2018784;29;20025;-60
2022/02/26 01:40:23;;;;;;;9.18;3.80;;;;;;;-1.77;100.00;103081.38;2018144;29;20111;-60
2022/02/26 01:41:24;;;;;;;6.97;3.13;;;;;;;-1.76;100.00;103076.34;2011799;29;20029;-60
2022/02/26 01:42:25;;;;;;;11.48;3.85;;;;;;;-1.72;100.00;103082.47;2011799;29;20022;-59
2022/02/26 01:43:25;;;;;;;12.30;3.63;;;;;;;-1.72;100.00;103085.91;2011808;29;20030;-60
2022/02/26 01:44:26;;;;;;;6.37;3.27;;;;;;;-1.72;100.00;103079.91;2018806;29;20033;-59
2022/02/26 01:45:26;;;;;;;7.60;3.03;;;;;;;-1.74;100.00;103089.22;2018908;29;20076;-60
2022/02/26 01:46:27;;;;;;;11.33;4.50;;;;;;;-1.77;100.00;103083.94;2011779;29;20655;-61
2022/02/26 01:47:27;;;;;;;6.43;2.50;;;;;;;-1.79;100.00;103080.47;2011811;29;20029;-61
2022/02/26 01:48:29;;;;;;;11.20;4.37;;;;;;;-1.84;100.00;103075.13;2011667;29;20053;-60
2022/02/26 01:49:30;;;;;;;5.30;3.45;;;;;;;-1.87;100.00;103075.84;2011696;29;20034;-61
2022/02/26 01:50:30;;;;;;;10.20;3.90;;;;;;;-1.88;100.00;103074.09;2011943;29;20040;-60
2022/02/26 01:51:30;;;;;;;8.30;3.00;;;;;;;-1.85;100.00;103074.22;2011905;29;20026;-60
2022/02/26 01:52:31;;;;;;;9.47;3.27;;;;;;;-1.81;100.00;103071.00;2011744;29;20286;-60
2022/02/26 01:53:31;;;;;;;9.60;4.75;;;;;;;-1.84;100.00;103078.53;2011749;29;20025;-60
2022/02/26 01:54:32;;;;;;;8.32;3.30;;;;;;;-1.93;100.00;103075.56;2011738;29;20448;-60
2022/02/26 01:55:33;;;;;;;9.93;3.57;;;;;;;-2.02;100.00;103081.13;2011763;29;20043;-60
2022/02/26 01:56:33;;;;;;;7.43;3.58;;;;;;;-2.07;100.00;103082.63;2011703;29;20392;-60
2022/02/26 01:57:33;;;;;;;8.23;3.83;;;;;;;-2.07;100.00;103083.50;2011711;29;20120;-60
2022/02/26 01:58:34;;;;;;;8.40;3.57;;;;;;;-2.03;100.00;103081.06;2011681;29;20294;-60
2022/02/26 01:59:35;;;;;;;7.85;2.78;;;;;;;-2.03;100.00;103081.94;2011595;29;20032;-60
2022/02/26 02:00:36;;;;;;;13.57;4.20;;;;;;;-2.03;100.00;103078.50;2011704;29;20021;-59
2022/02/26 02:01:36;;;;;;;14.52;4.00;;;;;;;-2.05;100.00;103086.13;2011568;29;20040;-59
2022/02/26 02:02:36;;;;;;;7.37;3.53;;;;;;;-2.08;100.00;103081.72;2011594;29;20049;-61
2022/02/26 02:03:37;;;;;;;8.67;3.60;;;;;;;-2.05;100.00;103085.25;2011634;29;20017;-61
2022/02/26 02:04:37;;;;;;;7.93;3.20;;;;;;;-2.04;100.00;103087.00;2011697;29;20395;-59
2022/02/26 02:05:39;;;;;;;12.33;4.57;;;;;;;-2.02;100.00;103083.69;2011600;29;20440;-60
2022/02/26 02:06:39;;;;;;;;;;;;;;;-1.93;100.00;103083.25;2012075;29;20054;-60
2022/02/26 02:07:40;;;;;;;11.77;3.25;;;;;;;-1.89;100.00;103085.13;2011580;29;19912;-60
2022/02/26 02:08:42;;;;;;;7.63;3.30;;;;;;;-1.94;100.00;103084.06;2011606;29;20021;-59
2022/02/26 02:09:44;;;;;;;5.30;3.10;;;;;;;-1.97;100.00;103081.34;2011544;29;20018;-59
2022/02/26 02:10:45;;;;;;;13.52;4.28;;;;;;;-2.00;100.00;103083.75;2011658;29;20025;-61
2022/02/26 02:11:46;;;;;;;7.18;3.30;;;;;;;-2.00;100.00;103087.22;2011558;29;20024;-60
2022/02/26 02:12:46;;;;;;;6.45;3.60;;;;;;;-2.03;100.00;103078.50;2011631;29;20029;-60
2022/02/26 02:13:47;;;;;;;10.93;4.13;;;;;;;-2.05;100.00;103075.91;2011454;29;20511;-60
2022/02/26 02:14:47;;;;;;;6.47;3.80;;;;;;;-2.04;100.00;103069.97;2011581;29;20049;-59
2022/02/26 02:15:48;;;;;;;12.07;4.93;;;;;;;-2.03;100.00;103073.38;2011484;29;20024;-60
2022/02/26 02:16:48;;;;;;;13.77;4.20;;;;;;;-2.04;100.00;103076.75;2011565;29;20792;-60
2022/02/26 02:17:49;;;;;;;5.70;2.93;;;;;;;-2.09;100.00;103079.13;2011492;29;20035;-60
2022/02/26 02:18:49;;;;;;;12.00;3.77;;;;;;;-2.12;100.00;103079.81;2011590;29;20036;-60
2022/02/26 02:19:50;;;;;;;7.77;3.90;;;;;;;-2.13;100.00;103072.97;2018540;29;20032;-60
2022/02/26 02:20:51;;;;;;;;;;;;;;;-2.17;100.00;103080.41;2018997;29;20397;-59
2022/02/26 02:21:51;;;;;;;6.78;3.30;;;;;;;-2.27;100.00;103074.00;2011495;29;19912;-59
2022/02/26 02:22:51;;;;;;;5.90;3.40;;;;;;;-2.31;100.00;103066.97;2018510;29;20033;-59
2022/02/26 02:23:52;;;;;;;9.37;3.57;;;;;;;-2.36;100.00;103070.19;2018584;29;20112;-59
2022/02/26 02:24:52;;;;;;;10.90;4.37;;;;;;;-2.36;100.00;103070.19;2011459;29;20112;-60
2022/02/26 02:25:55;;;;;;;8.17;3.80;;;;;;;-2.28;100.00;103067.13;2010951;29;20037;-60
2022/02/26 02:26:58;;;;;;;7.07;3.42;;;;;;;-2.25;100.00;103077.50;2011433;29;20029;-60
2022/02/26 02:27:59;;;;;;;11.50;3.92;;;;;;;-2.23;100.00;103070.78;2018537;29;20438;-60
2022/02/26 02:29:01;;;;;;;14.82;4.88;;;;;;;-2.22;100.00;103082.78;2018529;29;20040;-60
2022/02/26 02:30:01;;;;;;;14.73;4.22;;;;;;;-2.21;100.00;103074.28;2011395;29;20057;-60
2022/02/26 02:31:01;;;;;;;6.73;3.00;;;;;;;-2.21;100.00;103076.84;2018456;29;20028;-59
2022/02/26 02:32:02;;;;;;;10.10;4.20;;;;;;;-2.21;100.00;103076.84;2018578;29;20061;-60
2022/02/26 02:33:02;;;;;;;10.80;4.28;;;;;;;-2.21;100.00;103079.41;2011460;29;20491;-59
2022/02/26 02:34:03;;;;;;;10.77;5.43;;;;;;;-2.20;100.00;103076.03;2011447;29;20445;-60
2022/02/26 02:35:04;;;;;;;9.23;3.88;;;;;;;-2.17;100.00;103081.31;2011481;29;20290;-60
2022/02/26 02:36:04;;;;;;;9.90;4.30;;;;;;;-2.07;100.00;103078.38;2011392;29;20166;-60
2022/02/26 02:37:07;;;;;;;10.47;4.50;;;;;;;-1.99;100.00;103075.31;2011488;29;20052;-60
2022/02/26 02:38:14;;;;;;;12.50;4.68;;;;;;;-1.94;100.00;103078.94;2011133;29;20034;-59
2022/02/26 02:39:15;;;;;;;8.48;4.63;;;;;;;-1.96;100.00;103075.41;2011282;29;20037;-59
2022/02/26 02:40:15;;;;;;;6.80;3.70;;;;;;;-2.01;100.00;103074.34;2010657;29;20483;-60
2022/02/26 02:41:15;;;;;;;10.07;4.33;;;;;;;-2.07;100.00;103073.25;2010779;29;20032;-60
2022/02/26 02:42:16;;;;;;;11.87;4.20;;;;;;;-2.13;100.00;103070.41;2011316;29;20047;-60
2022/02/26 02:43:16;;;;;;;7.90;3.87;;;;;;;-2.15;100.00;103074.59;2011378;29;20411;-59
2022/02/26 02:44:16;;;;;;;8.65;5.05;;;;;;;-2.16;100.00;103072.81;2011365;29;20029;-59
2022/02/26 02:45:18;;;;;;;8.00;5.00;;;;;;;-2.16;100.00;103065.13;2018393;29;20120;-60
2022/02/26 02:46:18;;;;;;;9.15;4.45;;;;;;;-2.14;100.00;103076.34;2018432;29;20028;-59
2022/02/26 02:47:18;;;;;;;11.03;3.57;;;;;;;-2.14;100.00;103073.78;2011403;29;20116;-60
2022/02/26 02:48:18;;;;;;;9.07;3.97;;;;;;;-2.17;100.00;103072.75;2011215;29;20111;-59
2022/02/26 02:49:19;;;;;;;6.97;3.40;;;;;;;-2.18;100.00;103081.22;2018350;29;20044;-59
2022/02/26 02:50:19;;;;;;;7.57;4.03;;;;;;;-2.15;100.00;103084.81;2018365;29;20029;-59
2022/02/26 02:51:19;;;;;;;8.10;3.90;;;;;;;-2.17;100.00;103080.41;2011346;29;20065;-59
2022/02/26 02:52:19;;;;;;;14.77;3.90;;;;;;;-2.15;100.00;103089.06;2011349;29;20040;-60
2022/02/26 02:53:20;;;;;;;8.70;3.60;;;;;;;-2.16;100.00;103083.06;2011337;29;20112;-60
2022/02/26 02:54:20;;;;;;;5.80;4.00;;;;;;;-2.16;100.00;103085.59;2011346;29;20026;-60
2022/02/26 02:55:21;;;;;;;7.53;4.13;;;;;;;-2.16;100.00;103080.50;2018364;29;20077;-60
2022/02/26 02:56:22;;;;;;;7.82;4.35;;;;;;;-2.20;100.00;103081.16;2018410;29;20289;-60
2022/02/26 02:57:22;;;;;;;5.27;3.30;;;;;;;-2.22;100.00;103077.66;2011324;29;20061;-60
2022/02/26 02:58:24;;;;;;;8.13;3.13;;;;;;;-2.20;100.00;103081.16;2011314;29;20089;-60
2022/02/26 02:59:24;;;;;;;9.07;3.88;;;;;;;-2.21;100.00;103080.28;2011110;29;20037;-60
2022/02/26 03:00:26;;;;;;;9.90;3.57;;;;;;;-2.19;100.00;103075.22;2011281;29;20044;-60
2022/02/26 03:01:26;;;;;;;8.00;3.92;;;;;;;-2.19;100.00;103075.22;2018101;29;20494;-60
2022/02/26 03:02:26;;;;;;;9.23;4.07;;;;;;;-2.20;100.00;103076.03;2018332;29;20073;-61
2022/02/26 03:03:27;;;;;;;8.50;4.20;;;;;;;-2.19;100.00;103088.03;2011280;29;20376;-61
2022/02/26 03:04:27;;;;;;;7.57;3.77;;;;;;;-2.16;100.00;103083.06;2011242;29;20451;-59
2022/02/26 03:05:27;;;;;;;16.00;5.00;;;;;;;-2.16;100.00;103083.06;2018286;29;20034;-59
2022/02/26 03:06:28;;;;;;;9.30;3.83;;;;;;;-2.17;100.00;103077.84;2018349;29;20067;-60
2022/02/26 03:07:28;;;;;;;8.60;4.07;;;;;;;-2.19;100.00;103082.91;2011312;29;20108;-59
2022/02/26 03:08:28;;;;;;;10.07;4.00;;;;;;;-2.18;100.00;103079.56;2011274;29;20112;-59
2022/02/26 03:09:28;;;;;;;6.30;4.27;;;;;;;-2.16;100.00;103074.53;2011177;29;20448;-59
2022/02/26 03:10:29;;;;;;;8.60;3.87;;;;;;;-2.15;100.00;103073.72;2011235;29;20029;-60
2022/02/26 03:11:29;;;;;;;12.37;4.60;;;;;;;-2.15;100.00;103071.16;2011100;29;20490;-60
2022/02/26 03:12:30;;;;;;;7.80;4.23;;;;;;;-2.15;100.00;103072.03;2011184;29;20033;-60
2022/02/26 03:13:31;;;;;;;9.43;4.18;;;;;;;-2.19;100.00;103077.78;2011234;29;20104;-59
2022/02/26 03:14:31;;;;;;;7.75;3.90;;;;;;;-2.21;100.00;103079.41;2011188;29;20391;-60
2022/02/26 03:15:32;;;;;;;10.03;3.90;;;;;;;-2.23;100.00;103081.91;2011092;29;20022;-59
2022/02/26 03:16:33;;;;;;;11.02;4.38;;;;;;;-2.22;100.00;103083.63;2018152;29;20522;-59
2022/02/26 03:17:33;;;;;;;9.43;4.37;;;;;;;-2.23;100.00;103076.78;2018211;29;20588;-59
2022/02/26 03:18:33;;;;;;;10.63;4.40;;;;;;;-2.27;100.00;103079.09;2011255;29;20112;-59
2022/02/26 03:19:34;;;;;;;13.03;4.23;;;;;;;-2.29;100.00;103075.63;2011094;29;20040;-60
2022/02/26 03:20:34;;;;;;;6.37;3.70;;;;;;;-2.34;100.00;103073.72;2011140;29;20064;-59
2022/02/26 03:21:35;;;;;;;9.37;3.83;;;;;;;-2.39;100.00;103080.28;2011076;29;20028;-59
2022/02/26 03:22:35;;;;;;;8.52;4.95;;;;;;;-2.37;100.00;103088.91;2011099;29;20138;-60
2022/02/26 03:23:36;;;;;;;12.00;4.83;;;;;;;-2.30;100.00;103089.22;2011078;29;20544;-59
2022/02/26 03:24:37;;;;;;;9.70;3.97;;;;;;;-2.26;100.00;103091.97;2011102;29;20035;-59
2022/02/26 03:25:37;;;;;;;11.18;4.45;;;;;;;-2.25;100.00;103098.88;2011007;29;20298;-59
2022/02/26 03:26:37;;;;;;;8.80;5.13;;;;;;;-2.25;100.00;103093.75;2011090;29;20053;-59
2022/02/26 03:27:38;;;;;;;12.47;5.47;;;;;;;-2.27;100.00;103090.22;2010989;29;20388;-59
2022/02/26 03:28:38;;;;;;;11.75;5.15;;;;;;;-2.30;100.00;103090.06;2011077;29;20029;-60
2022/02/26 03:29:39;;;;;;;11.43;4.97;;;;;;;-2.29;100.00;103098.63;2010977;29;20123;-60
2022/02/26 03:30:40;;;;;;;12.65;4.97;;;;;;;-2.27;100.00;103099.56;2010997;29;20029;-60
2022/02/26 03:31:43;;;;;;;7.82;4.10;;;;;;;-2.25;100.00;103111.66;2018015;29;20504;-60
2022/02/26 03:32:44;;;;;;;13.30;5.10;;;;;;;-2.23;100.00;103116.81;2017840;29;20491;-60
2022/02/26 03:33:45;;;;;;;8.02;4.43;;;;;;;-2.24;100.00;103107.41;2010904;29;20026;-59
2022/02/26 03:34:45;;;;;;;11.55;4.88;;;;;;;-2.25;100.00;103109.09;2010995;29;20412;-59
2022/02/26 03:35:46;;;;;;;9.93;3.90;;;;;;;-2.26;100.00;103112.44;2010964;29;20135;-59
2022/02/26 03:36:51;;;;;;;6.67;3.97;;;;;;;-2.29;100.00;103117.41;2010866;29;20424;-59
2022/02/26 03:37:51;;;;;;;11.95;4.72;;;;;;;-2.30;100.00;103109.69;2010276;29;20044;-59
2022/02/26 03:38:51;;;;;;;14.43;4.87;;;;;;;-2.29;100.00;103116.53;2010314;29;20503;-60
2022/02/26 03:39:52;;;;;;;13.73;5.27;;;;;;;-2.30;100.00;103114.81;2010213;29;20030;-59
2022/02/26 03:40:52;;;;;;;10.37;5.30;;;;;;;-2.33;100.00;103115.50;2010970;29;20037;-59
2022/02/26 03:41:52;;;;;;;11.63;4.97;;;;;;;-2.34;100.00;103119.75;2010921;29;20025;-59
2022/02/26 03:42:53;;;;;;;11.40;5.70;;;;;;;-2.34;100.00;103124.00;2010935;29;20052;-59
2022/02/26 03:43:53;;;;;;;12.50;5.13;;;;;;;-2.36;100.00;103121.34;2010928;29;20033;-59
2022/02/26 03:44:53;;;;;;;9.63;3.93;;;;;;;-2.37;100.00;103129.84;2010898;29;20089;-59
2022/02/26 03:45:55;;;;;;;8.73;5.13;;;;;;;-2.35;100.00;103125.69;2010900;29;20034;-59
2022/02/26 03:46:55;;;;;;;9.13;4.88;;;;;;;-2.30;100.00;103123.34;2010923;29;20025;-60
2022/02/26 03:47:56;;;;;;;12.00;5.27;;;;;;;-2.26;100.00;103129.50;2010753;29;20029;-59
2022/02/26 03:48:56;;;;;;;10.85;5.10;;;;;;;-2.24;100.00;103126.19;2010898;29;20061;-60
2022/02/26 03:49:57;;;;;;;13.73;5.60;;;;;;;-2.23;100.00;103127.06;2010840;29;20077;-59
2022/02/26 03:51:04;;;;;;;13.03;5.53;;;;;;;-2.26;100.00;103132.91;2010835;29;20101;-60
2022/02/26 03:52:04;;;;;;;10.88;6.15;;;;;;;-2.27;100.00;103136.28;2010778;29;20041;-59
2022/02/26 03:53:05;;;;;;;10.40;5.63;;;;;;;-2.29;100.00;103135.31;2010827;29;20030;-59
2022/02/26 03:54:06;;;;;;;9.57;5.93;;;;;;;-2.27;100.00;103141.41;2010973;29;20029;-61
2022/02/26 03:55:07;;;;;;;13.33;7.20;;;;;;;-2.26;100.00;103139.72;2010928;29;20497;-60
2022/02/26 03:56:08;;;;;;;12.23;5.03;;;;;;;-2.27;100.00;103136.28;2010817;29;20090;-59
2022/02/26 03:57:08;;;;;;;13.03;6.27;;;;;;;-2.30;100.00;103140.38;2010854;29;20061;-59
2022/02/26 03:58:08;;;;;;;11.60;5.80;;;;;;;-2.33;100.00;103131.75;2010148;29;20022;-60
2022/02/26 03:59:09;;;;;;;9.73;4.77;;;;;;;-2.30;100.00;103131.00;2010145;29;20017;-59
2022/02/26 04:00:11;;;;;;;9.07;4.97;;;;;;;-2.28;100.00;103137.09;2010815;29;20543;-59
2022/02/26 04:01:11;;;;;;;13.18;6.70;;;;;;;-2.27;100.00;103135.38;2010720;29;20037;-60
2022/02/26 04:02:12;;;;;;;12.80;5.40;;;;;;;-2.29;100.00;103142.13;2010726;29;20037;-59
2022/02/26 04:03:12;;;;;;;10.17;4.97;;;;;;;-2.30;100.00;103140.38;2010734;29;20105;-60
2022/02/26 04:04:12;;;;;;;14.30;5.80;;;;;;;-2.30;100.00;103140.38;2010639;29;20086;-59
2022/02/26 04:05:12;;;;;;;9.03;4.00;;;;;;;-2.32;100.00;103147.97;2010719;29;20034;-58
2022/02/26 04:06:13;;;;;;;11.50;4.13;;;;;;;-2.26;100.00;103155.06;2010742;29;20053;-59
2022/02/26 04:07:13;;;;;;;9.88;5.22;;;;;;;-2.20;100.00;103157.91;2010657;29;20278;-59
2022/02/26 04:08:14;;;;;;;13.33;4.77;;;;;;;-2.18;100.00;103148.66;2010758;29;20048;-58
2022/02/26 04:09:14;;;;;;;10.73;4.87;;;;;;;-2.20;100.00;103152.78;2010714;29;20432;-59
2022/02/26 04:10:14;;;;;;;7.50;4.83;;;;;;;-2.26;100.00;103157.63;2010744;29;20447;-59
2022/02/26 04:11:14;;;;;;;6.37;4.27;;;;;;;-2.32;100.00;103160.78;2010627;29;20030;-60
2022/02/26 04:12:17;;;;;;;10.90;5.00;;;;;;;-2.37;100.00;103151.97;2010511;29;20030;-59
2022/02/26 04:13:17;;;;;;;10.25;5.63;;;;;;;-2.41;100.00;103152.63;2010434;29;20082;-59
2022/02/26 04:14:17;;;;;;;9.60;5.80;;;;;;;-2.42;100.00;103156.88;2010566;29;20037;-60
2022/02/26 04:15:17;;;;;;;12.40;5.37;;;;;;;-2.44;100.00;103163.59;2010608;29;20071;-59
2022/02/26 04:16:18;;;;;;;12.83;5.60;;;;;;;-2.42;100.00;103166.22;2010539;29;20037;-59
2022/02/26 04:17:18;;;;;;;11.60;5.83;;;;;;;-2.44;100.00;103166.16;2009996;29;20029;-60
2022/02/26 04:18:18;;;;;;;11.97;5.77;;;;;;;-2.42;100.00;103156.88;2010080;29;20191;-60
2022/02/26 04:19:18;;;;;;;13.30;6.63;;;;;;;-2.39;100.00;103161.25;2010622;29;20025;-59
2022/02/26 04:20:19;;;;;;;12.30;5.50;;;;;;;-2.40;100.00;103165.50;2010693;29;20098;-60
2022/02/26 04:21:19;;;;;;;11.20;5.63;;;;;;;-2.41;100.00;103167.97;2010703;29;20084;-60
2022/02/26 04:22:19;;;;;;;8.00;4.83;;;;;;;-2.45;100.00;103169.50;2010649;29;20068;-60
2022/02/26 04:23:20;;;;;;;10.00;5.30;;;;;;;-2.48;100.00;103171.91;2010638;29;20032;-60
2022/02/26 04:24:21;;;;;;;12.80;5.55;;;;;;;-2.50;100.00;103176.94;2010619;29;20040;-60
2022/02/26 04:25:21;;;;;;;8.88;4.40;;;;;;;-2.50;100.00;103178.66;2017678;29;20479;-61
2022/02/26 04:26:22;;;;;;;13.40;6.10;;;;;;;-2.47;100.00;103176.22;2017719;29;20507;-60
2022/02/26 04:27:22;;;;;;;9.30;5.80;;;;;;;-2.43;100.00;103170.44;2010555;29;20028;-59
2022/02/26 04:28:23;;;;;;;9.10;5.50;;;;;;;-2.43;100.00;103175.56;2010529;29;20085;-59
2022/02/26 04:29:23;;;;;;;11.90;4.97;;;;;;;-2.40;100.00;103174.88;2010583;29;20034;-60
2022/02/26 04:30:23;;;;;;;10.30;5.87;;;;;;;-2.37;100.00;103173.31;2010590;29;20124;-61
2022/02/26 04:31:25;;;;;;;10.77;6.07;;;;;;;-2.33;100.00;103171.78;2010589;29;20037;-60
2022/02/26 04:32:25;;;;;;;;;;;;;;;-2.31;100.00;103174.41;2010954;29;20044;-60
2022/02/26 04:33:27;;;;;;;6.38;4.53;;;;;;;-2.30;100.00;103176.19;2010595;29;19919;-60
2022/02/26 04:34:27;;;;;;;9.45;4.90;;;;;;;-2.25;100.00;103175.63;2009940;29;20025;-59
2022/02/26 04:35:28;;;;;;;8.97;5.63;;;;;;;-2.20;100.00;103180.94;2009994;29;20490;-59
2022/02/26 04:36:28;;;;;;;14.27;5.80;;;;;;;-2.18;100.00;103174.22;2010551;29;20033;-59
2022/02/26 04:37:28;;;;;;;10.68;6.15;;;;;;;-2.15;100.00;103176.94;2010552;29;20022;-59
2022/02/26 04:38:29;;;;;;;15.90;5.93;;;;;;;-2.12;100.00;103181.31;2017625;29;20116;-60